sensor_id;sensor_type;location;lat;lon;timestamp;pressure;altitude;pressure_sealevel;temperature;humidity
21520;BME280;10921;53.614;9.882;2022-12-07T00:01:41;101003.72;;;5.52;88.01
21520;BME280;10921;53.614;9.882;2022-12-07T00:04:12;101001.06;;;5.52;88.03
21520;BME280;10921;53.614;9.882;2022-12-07T00:06:42;100993.47;;;5.60;88.60
21520;BME280;10921;53.614;9.882;2022-12-07T00:09:12;100986.16;;;5.51;87.58
21520;BME280;10921;53.614;9.882;2022-12-07T00:11:39;100990.94;;;5.46;88.11
21520;BME280;10921;53.614;9.882;2022-12-07T00:14:10;100983.94;;;5.45;88.13
21520;BME280;10921;53.614;9.882;2022-12-07T00:16:36;100993.22;;;5.50;88.04
21520;BME280;10921;53.614;9.882;2022-12-07T00:19:03;100981.84;;;5.50;88.02
21520;BME280;10921;53.614;9.882;2022-12-07T00:21:35;100974.84;;;5.49;88.25
21520;BME280;10921;53.614;9.882;2022-12-07T00:24:03;100974.59;;;5.52;88.22
21520;BME280;10921;53.614;9.882;2022-12-07T00:26:32;100973.75;;;5.51;88.49
21520;BME280;10921;53.614;9.882;2022-12-07T00:29:02;100977.91;;;5.55;88.19
21520;BME280;10921;53.614;9.882;2022-12-07T00:31:32;100969.00;;;5.56;88.73
21520;BME280;10921;53.614;9.882;2022-12-07T00:34:01;100971.44;;;5.59;88.02
21520;BME280;10921;53.614;9.882;2022-12-07T00:36:28;100975.88;;;5.59;88.32
21520;BME280;10921;53.614;9.882;2022-12-07T00:38:57;100980.13;;;5.61;88.42
21520;BME280;10921;53.614;9.882;2022-12-07T00:41:25;100980.97;;;5.62;88.09
21520;BME280;10921;53.614;9.882;2022-12-07T00:43:53;100960.13;;;5.57;88.45
21520;BME280;10921;53.614;9.882;2022-12-07T00:46:20;100961.59;;;5.61;88.29
21520;BME280;10921;53.614;9.882;2022-12-07T00:48:48;100961.59;;;5.61;88.22
21520;BME280;10921;53.614;9.882;2022-12-07T00:51:16;100963.19;;;5.64;88.49
21520;BME280;10921;53.614;9.882;2022-12-07T00:53:43;100948.56;;;5.58;88.78
21520;BME280;10921;53.614;9.882;2022-12-07T00:56:15;100950.81;;;5.64;89.11
21520;BME280;10921;53.614;9.882;2022-12-07T00:58:42;100937.88;;;5.60;88.92
21520;BME280;10921;53.614;9.882;2022-12-07T01:01:09;100947.06;;;5.67;89.13
21520;BME280;10921;53.614;9.882;2022-12-07T01:03:37;100941.88;;;5.65;89.12
21520;BME280;10921;53.614;9.882;2022-12-07T01:06:04;100937.22;;;5.69;89.12
21520;BME280;10921;53.614;9.882;2022-12-07T01:08:31;100935.41;;;5.70;88.87
21520;BME280;10921;53.614;9.882;2022-12-07T01:11:06;100937.97;;;5.71;89.44
21520;BME280;10921;53.614;9.882;2022-12-07T01:13:34;100935.53;;;5.68;88.80
21520;BME280;10921;53.614;9.882;2022-12-07T01:16:03;100931.94;;;5.69;88.86
21520;BME280;10921;53.614;9.882;2022-12-07T01:18:33;100939.13;;;5.67;88.68
21520;BME280;10921;53.614;9.882;2022-12-07T01:23:30;100933.94;;;5.65;88.51
21520;BME280;10921;53.614;9.882;2022-12-07T01:25:58;100923.69;;;5.61;88.18
21520;BME280;10921;53.614;9.882;2022-12-07T01:28:26;100924.84;;;5.57;88.29
21520;BME280;10921;53.614;9.882;2022-12-07T01:33:32;100931.19;;;5.54;88.34
21520;BME280;10921;53.614;9.882;2022-12-07T01:36:08;100931.09;;;5.56;89.05
21520;BME280;10921;53.614;9.882;2022-12-07T01:38:35;100913.13;;;5.48;88.33
21520;BME280;10921;53.614;9.882;2022-12-07T01:41:02;100916.94;;;5.44;88.55
21520;BME280;10921;53.614;9.882;2022-12-07T01:43:31;100923.81;;;5.47;88.31
21520;BME280;10921;53.614;9.882;2022-12-07T01:45:58;100925.59;;;5.46;88.14
21520;BME280;10921;53.614;9.882;2022-12-07T01:48:38;100914.81;;;5.37;89.02
21520;BME280;10921;53.614;9.882;2022-12-07T01:51:10;100933.31;;;5.37;88.90
21520;BME280;10921;53.614;9.882;2022-12-07T01:53:41;100924.97;;;5.30;88.25
21520;BME280;10921;53.614;9.882;2022-12-07T01:56:12;100918.09;;;5.27;88.49
21520;BME280;10921;53.614;9.882;2022-12-07T01:58:41;100919.25;;;5.23;88.49
21520;BME280;10921;53.614;9.882;2022-12-07T02:01:08;100929.84;;;5.23;88.33
21520;BME280;10921;53.614;9.882;2022-12-07T02:03:38;100916.81;;;5.20;88.69
21520;BME280;10921;53.614;9.882;2022-12-07T02:06:06;100921.69;;;5.14;88.60
21520;BME280;10921;53.614;9.882;2022-12-07T02:08:34;100928.03;;;5.11;88.86
21520;BME280;10921;53.614;9.882;2022-12-07T02:11:02;100923.78;;;5.09;88.73
21520;BME280;10921;53.614;9.882;2022-12-07T02:13:35;100933.00;;;5.03;89.13
21520;BME280;10921;53.614;9.882;2022-12-07T02:28:08;100916.69;;;4.84;89.75
21520;BME280;10921;53.614;9.882;2022-12-07T02:30:44;100924.63;;;4.84;89.42
21520;BME280;10921;53.614;9.882;2022-12-07T02:33:21;100911.88;;;4.76;89.43
21520;BME280;10921;53.614;9.882;2022-12-07T02:38:38;100918.97;;;4.76;90.22
21520;BME280;10921;53.614;9.882;2022-12-07T02:41:11;100916.66;;;4.71;89.36
21520;BME280;10921;53.614;9.882;2022-12-07T02:43:43;100915.16;;;4.67;89.44
21520;BME280;10921;53.614;9.882;2022-12-07T02:46:17;100905.72;;;4.63;89.44
21520;BME280;10921;53.614;9.882;2022-12-07T02:48:46;100913.00;;;4.59;88.98
21520;BME280;10921;53.614;9.882;2022-12-07T02:51:14;100913.13;;;4.58;88.97
21520;BME280;10921;53.614;9.882;2022-12-07T02:53:43;100921.78;;;4.60;89.15
21520;BME280;10921;53.614;9.882;2022-12-07T02:59:20;100921.47;;;4.52;89.43
21520;BME280;10921;53.614;9.882;2022-12-07T03:07:59;100922.78;;;4.45;89.14
21520;BME280;10921;53.614;9.882;2022-12-07T03:10:42;100909.34;;;4.35;89.26
21520;BME280;10921;53.614;9.882;2022-12-07T03:13:19;100924.91;;;4.40;89.13
21520;BME280;10921;53.614;9.882;2022-12-07T03:18:30;100922.47;;;4.37;88.93
21520;BME280;10921;53.614;9.882;2022-12-07T03:21:01;100915.59;;;4.34;88.94
21520;BME280;10921;53.614;9.882;2022-12-07T03:23:31;100926.16;;;4.34;89.00
21520;BME280;10921;53.614;9.882;2022-12-07T03:26:00;100914.06;;;4.30;88.73
21520;BME280;10921;53.614;9.882;2022-12-07T03:28:33;100923.69;;;4.31;88.99
21520;BME280;10921;53.614;9.882;2022-12-07T03:33:46;100910.25;;;4.21;89.10
21520;BME280;10921;53.614;9.882;2022-12-07T03:36:30;100921.56;;;4.23;89.15
21520;BME280;10921;53.614;9.882;2022-12-07T03:39:09;100920.72;;;4.23;89.07
21520;BME280;10921;53.614;9.882;2022-12-07T03:41:40;100915.16;;;4.13;88.51
21520;BME280;10921;53.614;9.882;2022-12-07T03:44:13;100923.75;;;4.17;88.56
21520;BME280;10921;53.614;9.882;2022-12-07T03:46:44;100932.63;;;4.16;88.96
21520;BME280;10921;53.614;9.882;2022-12-07T03:49:38;100915.28;;;4.12;89.75
21520;BME280;10921;53.614;9.882;2022-12-07T03:52:25;100915.47;;;4.09;89.47
21520;BME280;10921;53.614;9.882;2022-12-07T03:55:11;100924.34;;;4.08;88.68
21520;BME280;10921;53.614;9.882;2022-12-07T03:57:42;100924.44;;;4.06;88.76
21520;BME280;10921;53.614;9.882;2022-12-07T04:00:12;100930.84;;;4.02;88.65
21520;BME280;10921;53.614;9.882;2022-12-07T04:02:39;100934.44;;;4.01;88.64
21520;BME280;10921;53.614;9.882;2022-12-07T04:05:07;100936.31;;;3.99;89.07
21520;BME280;10921;53.614;9.882;2022-12-07T04:07:34;100931.44;;;3.93;88.96
21520;BME280;10921;53.614;9.882;2022-12-07T04:10:01;100934.19;;;3.92;88.48
21520;BME280;10921;53.614;9.882;2022-12-07T04:12:28;100924.00;;;3.85;88.80
21520;BME280;10921;53.614;9.882;2022-12-07T04:14:54;100931.53;;;3.92;88.82
21520;BME280;10921;53.614;9.882;2022-12-07T04:17:21;100922.13;;;3.87;88.61
21520;BME280;10921;53.614;9.882;2022-12-07T04:19:47;100926.34;;;3.90;88.52
21520;BME280;10921;53.614;9.882;2022-12-07T04:22:15;100937.88;;;3.89;88.70
21520;BME280;10921;53.614;9.882;2022-12-07T04:24:41;100923.16;;;3.85;88.72
21520;BME280;10921;53.614;9.882;2022-12-07T04:27:08;100926.34;;;3.90;88.54
21520;BME280;10921;53.614;9.882;2022-12-07T04:29:34;100928.25;;;3.88;88.58
21520;BME280;10921;53.614;9.882;2022-12-07T04:32:01;100928.53;;;3.83;88.78
21520;BME280;10921;53.614;9.882;2022-12-07T04:34:27;100938.81;;;3.88;88.69
21520;BME280;10921;53.614;9.882;2022-12-07T04:36:54;100936.34;;;3.85;88.42
21520;BME280;10921;53.614;9.882;2022-12-07T04:39:24;100934.56;;;3.85;88.68
21520;BME280;10921;53.614;9.882;2022-12-07T04:41:50;100939.84;;;3.85;88.48
21520;BME280;10921;53.614;9.882;2022-12-07T04:44:18;100938.13;;;3.84;88.39
21520;BME280;10921;53.614;9.882;2022-12-07T04:46:45;100944.38;;;3.83;88.50
21520;BME280;10921;53.614;9.882;2022-12-07T04:49:12;100942.66;;;3.82;88.09
21520;BME280;10921;53.614;9.882;2022-12-07T04:51:39;100930.91;;;3.74;88.22
21520;BME280;10921;53.614;9.882;2022-12-07T04:54:06;100940.44;;;3.76;87.89
21520;BME280;10921;53.614;9.882;2022-12-07T04:56:33;100929.31;;;3.71;87.99
21520;BME280;10921;53.614;9.882;2022-12-07T04:59:02;100923.66;;;3.63;87.71
21520;BME280;10921;53.614;9.882;2022-12-07T05:01:29;100931.50;;;3.65;87.36
21520;BME280;10921;53.614;9.882;2022-12-07T05:03:56;100926.66;;;3.57;87.55
21520;BME280;10921;53.614;9.882;2022-12-07T05:06:23;100920.72;;;3.53;87.35
21520;BME280;10921;53.614;9.882;2022-12-07T05:08:49;100921.88;;;3.49;87.22
21520;BME280;10921;53.614;9.882;2022-12-07T05:11:16;100932.44;;;3.49;87.36
21520;BME280;10921;53.614;9.882;2022-12-07T05:14:03;100926.50;;;3.46;87.04
21520;BME280;10921;53.614;9.882;2022-12-07T05:16:30;100920.81;;;3.38;87.29
21520;BME280;10921;53.614;9.882;2022-12-07T05:18:57;100929.50;;;3.40;87.21
21520;BME280;10921;53.614;9.882;2022-12-07T05:21:24;100931.47;;;3.36;87.38
21520;BME280;10921;53.614;9.882;2022-12-07T05:23:51;100929.03;;;3.33;87.37
21520;BME280;10921;53.614;9.882;2022-12-07T05:26:17;100923.94;;;3.30;87.33
21520;BME280;10921;53.614;9.882;2022-12-07T05:28:44;100919.03;;;3.24;87.42
21520;BME280;10921;53.614;9.882;2022-12-07T05:31:10;100924.22;;;3.26;87.20
21520;BME280;10921;53.614;9.882;2022-12-07T05:33:37;100914.22;;;3.16;87.49
21520;BME280;10921;53.614;9.882;2022-12-07T05:36:03;100914.91;;;3.20;87.49
21520;BME280;10921;53.614;9.882;2022-12-07T05:38:32;100922.50;;;3.25;88.00
21520;BME280;10921;53.614;9.882;2022-12-07T05:41:03;100920.63;;;3.27;88.52
21520;BME280;10921;53.614;9.882;2022-12-07T05:43:30;100930.25;;;3.28;87.91
21520;BME280;10921;53.614;9.882;2022-12-07T05:45:57;100919.69;;;3.28;88.34
21520;BME280;10921;53.614;9.882;2022-12-07T05:48:25;100923.28;;;3.27;88.00
21520;BME280;10921;53.614;9.882;2022-12-07T05:50:52;100910.25;;;3.24;88.20
21520;BME280;10921;53.614;9.882;2022-12-07T05:53:19;100921.41;;;3.29;88.16
21520;BME280;10921;53.614;9.882;2022-12-07T05:55:48;100919.88;;;3.25;88.33
21520;BME280;10921;53.614;9.882;2022-12-07T05:58:15;100920.63;;;3.27;88.12
21520;BME280;10921;53.614;9.882;2022-12-07T06:01:00;100919.88;;;3.25;87.91
21520;BME280;10921;53.614;9.882;2022-12-07T06:03:26;100914.91;;;3.20;87.75
21520;BME280;10921;53.614;9.882;2022-12-07T06:05:53;100918.84;;;3.13;87.63
21520;BME280;10921;53.614;9.882;2022-12-07T06:08:20;100920.19;;;3.20;87.86
21520;BME280;10921;53.614;9.882;2022-12-07T06:10:47;100921.19;;;3.17;88.16
21520;BME280;10921;53.614;9.882;2022-12-07T06:13:33;100921.84;;;3.21;88.28
21520;BME280;10921;53.614;9.882;2022-12-07T06:16:00;100927.25;;;3.20;88.25
21520;BME280;10921;53.614;9.882;2022-12-07T06:18:26;100913.47;;;3.14;88.43
21520;BME280;10921;53.614;9.882;2022-12-07T06:20:53;100908.28;;;3.13;88.59
21520;BME280;10921;53.614;9.882;2022-12-07T06:23:19;100914.06;;;3.20;88.61
21520;BME280;10921;53.614;9.882;2022-12-07T06:25:46;100901.81;;;3.18;88.69
21520;BME280;10921;53.614;9.882;2022-12-07T06:28:12;100914.06;;;3.20;88.64
21520;BME280;10921;53.614;9.882;2022-12-07T06:30:39;100906.88;;;3.22;88.92
21520;BME280;10921;53.614;9.882;2022-12-07T06:33:05;100911.13;;;3.24;88.80
21520;BME280;10921;53.614;9.882;2022-12-07T06:35:33;100910.00;;;3.28;89.26
21520;BME280;10921;53.614;9.882;2022-12-07T06:37:59;100916.78;;;3.32;89.32
21520;BME280;10921;53.614;9.882;2022-12-07T06:40:26;100898.59;;;3.28;89.88
21520;BME280;10921;53.614;9.882;2022-12-07T06:42:52;100909.34;;;3.39;90.31
21520;BME280;10921;53.614;9.882;2022-12-07T06:45:19;100907.53;;;3.39;90.17
21520;BME280;10921;53.614;9.882;2022-12-07T06:47:45;100908.47;;;3.52;90.05
21520;BME280;10921;53.614;9.882;2022-12-07T06:50:12;100913.66;;;3.54;89.93
21520;BME280;10921;53.614;9.882;2022-12-07T06:52:41;100910.56;;;3.62;90.43
21520;BME280;10921;53.614;9.882;2022-12-07T06:55:07;100901.03;;;3.59;90.28
21520;BME280;10921;53.614;9.882;2022-12-07T06:57:33;100909.31;;;3.67;90.15
21520;BME280;10921;53.614;9.882;2022-12-07T07:00:00;100912.53;;;3.72;90.40
21520;BME280;10921;53.614;9.882;2022-12-07T07:02:27;100906.41;;;3.72;90.27
21520;BME280;10921;53.614;9.882;2022-12-07T07:04:54;100907.72;;;3.79;90.27
21520;BME280;10921;53.614;9.882;2022-12-07T07:07:21;100904.31;;;3.77;89.91
21520;BME280;10921;53.614;9.882;2022-12-07T07:09:47;100913.00;;;3.79;89.73
21520;BME280;10921;53.614;9.882;2022-12-07T07:12:14;100912.50;;;3.86;90.06
21520;BME280;10921;53.614;9.882;2022-12-07T07:14:40;100919.56;;;3.86;89.93
21520;BME280;10921;53.614;9.882;2022-12-07T07:17:08;100909.84;;;3.86;89.90
21520;BME280;10921;53.614;9.882;2022-12-07T07:19:34;100913.91;;;3.92;89.63
21520;BME280;10921;53.614;9.882;2022-12-07T07:22:01;100912.88;;;3.95;89.56
21520;BME280;10921;53.614;9.882;2022-12-07T07:24:27;100921.56;;;3.97;89.21
21520;BME280;10921;53.614;9.882;2022-12-07T07:26:54;100918.16;;;3.95;89.20
21520;BME280;10921;53.614;9.882;2022-12-07T07:29:21;100909.19;;;3.97;89.08
21520;BME280;10921;53.614;9.882;2022-12-07T07:31:47;100918.59;;;4.01;89.18
21520;BME280;10921;53.614;9.882;2022-12-07T07:34:14;100902.22;;;3.96;89.29
21520;BME280;10921;53.614;9.882;2022-12-07T07:36:40;100920.19;;;4.04;89.12
21520;BME280;10921;53.614;9.882;2022-12-07T07:39:07;100924.53;;;4.05;89.16
21520;BME280;10921;53.614;9.882;2022-12-07T07:41:33;100924.53;;;4.05;89.14
21520;BME280;10921;53.614;9.882;2022-12-07T07:44:00;100916.63;;;4.05;88.83
21520;BME280;10921;53.614;9.882;2022-12-07T07:46:26;100934.16;;;4.06;88.87
21520;BME280;10921;53.614;9.882;2022-12-07T07:48:53;100918.41;;;4.04;88.80
21520;BME280;10921;53.614;9.882;2022-12-07T07:51:19;100925.09;;;4.10;88.87
21520;BME280;10921;53.614;9.882;2022-12-07T07:53:46;100924.34;;;4.08;88.61
21520;BME280;10921;53.614;9.882;2022-12-07T07:56:12;100934.72;;;4.11;88.74
21520;BME280;10921;53.614;9.882;2022-12-07T07:58:39;100927.09;;;4.06;88.86
21520;BME280;10921;53.614;9.882;2022-12-07T08:01:06;100941.38;;;4.16;88.59
21520;BME280;10921;53.614;9.882;2022-12-07T08:03:34;100927.75;;;4.10;88.50
21520;BME280;10921;53.614;9.882;2022-12-07T08:06:04;100937.81;;;4.17;88.88
21520;BME280;10921;53.614;9.882;2022-12-07T08:08:31;100934.13;;;4.20;88.66
21520;BME280;10921;53.614;9.882;2022-12-07T08:10:58;100937.41;;;4.23;88.61
21520;BME280;10921;53.614;9.882;2022-12-07T08:13:27;100937.31;;;4.25;88.51
21520;BME280;10921;53.614;9.882;2022-12-07T08:15:57;100933.75;;;4.26;88.38
21520;BME280;10921;53.614;9.882;2022-12-07T08:18:23;100939.56;;;4.31;88.40
21520;BME280;10921;53.614;9.882;2022-12-07T08:20:50;100920.63;;;4.24;88.49
21520;BME280;10921;53.614;9.882;2022-12-07T08:23:16;100925.31;;;4.34;88.46
21520;BME280;10921;53.614;9.882;2022-12-07T08:25:43;100931.25;;;4.37;88.08
21520;BME280;10921;53.614;9.882;2022-12-07T08:28:09;100944.34;;;4.39;87.80
21520;BME280;10921;53.614;9.882;2022-12-07T08:30:36;100939.81;;;4.41;87.82
21520;BME280;10921;53.614;9.882;2022-12-07T08:33:03;100940.56;;;4.43;88.16
21520;BME280;10921;53.614;9.882;2022-12-07T08:35:29;100932.66;;;4.43;87.88
21520;BME280;10921;53.614;9.882;2022-12-07T08:37:56;100931.38;;;4.48;87.89
21520;BME280;10921;53.614;9.882;2022-12-07T08:40:24;100927.03;;;4.47;88.05
21520;BME280;10921;53.614;9.882;2022-12-07T08:42:51;100933.72;;;4.53;87.70
21520;BME280;10921;53.614;9.882;2022-12-07T08:45:19;100924.75;;;4.55;87.90
21520;BME280;10921;53.614;9.882;2022-12-07T08:48:00;100941.88;;;4.63;88.24
21520;BME280;10921;53.614;9.882;2022-12-07T08:50:28;100928.78;;;4.61;87.74
21520;BME280;10921;53.614;9.882;2022-12-07T08:52:57;100940.44;;;4.71;87.82
21520;BME280;10921;53.614;9.882;2022-12-07T08:55:25;100941.31;;;4.72;87.73
21520;BME280;10921;53.614;9.882;2022-12-07T08:57:53;100933.13;;;4.75;87.69
21520;BME280;10921;53.614;9.882;2022-12-07T09:00:20;100932.94;;;4.78;87.85
21520;BME280;10921;53.614;9.882;2022-12-07T09:02:46;100943.88;;;4.86;87.78
21520;BME280;10921;53.614;9.882;2022-12-07T09:05:13;100955.72;;;4.93;87.56
21520;BME280;10921;53.614;9.882;2022-12-07T09:07:45;100945.88;;;4.95;87.43
21520;BME280;10921;53.614;9.882;2022-12-07T09:10:12;100951.53;;;5.03;87.46
21520;BME280;10921;53.614;9.882;2022-12-07T09:12:39;100936.06;;;4.97;87.44
21520;BME280;10921;53.614;9.882;2022-12-07T09:15:06;100954.38;;;5.13;87.33
21520;BME280;10921;53.614;9.882;2022-12-07T09:17:33;100950.25;;;5.09;87.23
21520;BME280;10921;53.614;9.882;2022-12-07T09:20:00;100950.47;;;5.18;87.06
21520;BME280;10921;53.614;9.882;2022-12-07T09:22:30;100947.41;;;5.24;87.08
21520;BME280;10921;53.614;9.882;2022-12-07T09:24:58;100944.66;;;5.26;86.97
21520;BME280;10921;53.614;9.882;2022-12-07T09:27:26;100943.06;;;5.36;86.83
21520;BME280;10921;53.614;9.882;2022-12-07T09:29:52;100935.97;;;5.37;86.58
21520;BME280;10921;53.614;9.882;2022-12-07T09:32:19;100951.13;;;5.47;86.43
21520;BME280;10921;53.614;9.882;2022-12-07T09:34:46;100944.53;;;5.53;86.35
21520;BME280;10921;53.614;9.882;2022-12-07T09:37:12;100935.66;;;5.54;86.50
21520;BME280;10921;53.614;9.882;2022-12-07T09:39:40;100948.38;;;5.61;86.23
21520;BME280;10921;53.614;9.882;2022-12-07T09:42:28;100936.38;;;5.69;86.92
21520;BME280;10921;53.614;9.882;2022-12-07T09:44:56;100948.13;;;5.77;85.94
21520;BME280;10921;53.614;9.882;2022-12-07T09:47:24;100951.28;;;5.82;85.93
21520;BME280;10921;53.614;9.882;2022-12-07T09:50:00;100937.94;;;5.84;85.70
21520;BME280;10921;53.614;9.882;2022-12-07T09:52:30;100937.84;;;5.85;85.04
21520;BME280;10921;53.614;9.882;2022-12-07T09:55:10;100940.38;;;5.99;85.42
21520;BME280;10921;53.614;9.882;2022-12-07T09:57:37;100943.66;;;6.03;84.49
21520;BME280;10921;53.614;9.882;2022-12-07T10:00:09;100947.56;;;6.10;84.82
21520;BME280;10921;53.614;9.882;2022-12-07T10:02:43;100926.47;;;6.09;84.34
21520;BME280;10921;53.614;9.882;2022-12-07T10:05:20;100938.31;;;6.16;84.07
21520;BME280;10921;53.614;9.882;2022-12-07T10:07:50;100927.94;;;6.13;83.45
21520;BME280;10921;53.614;9.882;2022-12-07T10:10:25;100934.28;;;6.23;83.94
21520;BME280;10921;53.614;9.882;2022-12-07T10:15:43;100939.00;;;6.30;84.30
21520;BME280;10921;53.614;9.882;2022-12-07T10:18:28;100941.44;;;6.33;83.74
21520;BME280;10921;53.614;9.882;2022-12-07T10:21:14;100934.22;;;6.35;83.62
21520;BME280;10921;53.614;9.882;2022-12-07T10:26:40;100942.56;;;6.42;82.58
21520;BME280;10921;53.614;9.882;2022-12-07T10:34:42;100931.72;;;6.45;81.22
21520;BME280;10921;53.614;9.882;2022-12-07T10:37:19;100936.72;;;6.50;80.91
21520;BME280;10921;53.614;9.882;2022-12-07T10:40:23;100930.13;;;6.55;81.91
21520;BME280;10921;53.614;9.882;2022-12-07T10:51:37;100929.94;;;6.69;81.10
21520;BME280;10921;53.614;9.882;2022-12-07T10:54:20;100927.75;;;6.75;80.09
21520;BME280;10921;53.614;9.882;2022-12-07T10:57:05;100915.97;;;6.79;79.84
21520;BME280;10921;53.614;9.882;2022-12-07T11:05:21;100914.00;;;7.04;77.95
21520;BME280;10921;53.614;9.882;2022-12-07T11:08:00;100910.75;;;7.12;78.36
21520;BME280;10921;53.614;9.882;2022-12-07T11:13:25;100909.31;;;7.19;77.28
21520;BME280;10921;53.614;9.882;2022-12-07T11:16:04;100907.50;;;7.20;77.53
21520;BME280;10921;53.614;9.882;2022-12-07T11:18:57;100899.19;;;7.13;76.79
21520;BME280;10921;53.614;9.882;2022-12-07T11:24:05;100901.72;;;7.15;74.74
21520;BME280;10921;53.614;9.882;2022-12-07T11:29:54;100899.06;;;7.15;75.24
21520;BME280;10921;53.614;9.882;2022-12-07T11:38:03;100902.91;;;7.11;73.52
21520;BME280;10921;53.614;9.882;2022-12-07T11:40:36;100884.91;;;7.03;73.86
21520;BME280;10921;53.614;9.882;2022-12-07T11:43:26;100892.06;;;7.14;73.25
21520;BME280;10921;53.614;9.882;2022-12-07T11:46:07;100884.00;;;7.15;73.71
21520;BME280;10921;53.614;9.882;2022-12-07T11:48:41;100863.47;;;7.06;73.37
21520;BME280;10921;53.614;9.882;2022-12-07T11:51:11;100883.50;;;7.10;72.48
21520;BME280;10921;53.614;9.882;2022-12-07T11:53:43;100883.88;;;7.17;72.29
21520;BME280;10921;53.614;9.882;2022-12-07T12:06:43;100879.88;;;7.33;70.34
21520;BME280;10921;53.614;9.882;2022-12-07T12:09:21;100873.75;;;7.33;69.50
21520;BME280;10921;53.614;9.882;2022-12-07T12:12:18;100882.81;;;7.41;69.18
21520;BME280;10921;53.614;9.882;2022-12-07T12:18:17;100878.84;;;7.47;68.62
21520;BME280;10921;53.614;9.882;2022-12-07T12:21:11;100881.00;;;7.53;69.11
21520;BME280;10921;53.614;9.882;2022-12-07T12:23:44;100889.31;;;7.49;67.96
21520;BME280;10921;53.614;9.882;2022-12-07T12:26:23;100883.75;;;7.52;68.42
21520;BME280;10921;53.614;9.882;2022-12-07T12:28:58;100884.50;;;7.54;68.23
21520;BME280;10921;53.614;9.882;2022-12-07T12:33:56;100866.50;;;7.57;66.44
21520;BME280;10921;53.614;9.882;2022-12-07T12:39:11;100881.94;;;7.74;67.64
21520;BME280;10921;53.614;9.882;2022-12-07T12:51:57;100868.72;;;8.06;65.95
21520;BME280;10921;53.614;9.882;2022-12-07T12:54:30;100874.38;;;8.13;66.69
21520;BME280;10921;53.614;9.882;2022-12-07T12:57:10;100872.69;;;8.12;65.73
21520;BME280;10921;53.614;9.882;2022-12-07T12:59:59;100856.00;;;8.10;66.09
21520;BME280;10921;53.614;9.882;2022-12-07T13:02:31;100873.66;;;8.11;66.80
21520;BME280;10921;53.614;9.882;2022-12-07T13:15:39;100873.72;;;7.89;64.21
21520;BME280;10921;53.614;9.882;2022-12-07T13:18:34;100866.84;;;7.86;64.67
21520;BME280;10921;53.614;9.882;2022-12-07T13:23:55;100867.31;;;7.80;64.74
21520;BME280;10921;53.614;9.882;2022-12-07T13:29:17;100876.41;;;7.78;64.46
21520;BME280;10921;53.614;9.882;2022-12-07T13:31:54;100881.22;;;7.72;63.20
21520;BME280;10921;53.614;9.882;2022-12-07T13:34:34;100879.03;;;7.66;59.75
21520;BME280;10921;53.614;9.882;2022-12-07T13:37:10;100877.75;;;7.61;59.94
21520;BME280;10921;53.614;9.882;2022-12-07T13:39:51;100883.91;;;7.61;59.95
21520;BME280;10921;53.614;9.882;2022-12-07T13:42:38;100884.97;;;7.59;59.92
21520;BME280;10921;53.614;9.882;2022-12-07T13:47:52;100883.19;;;7.48;58.83
21520;BME280;10921;53.614;9.882;2022-12-07T13:50:30;100884.84;;;7.49;59.62
21520;BME280;10921;53.614;9.882;2022-12-07T13:53:01;100885.34;;;7.43;58.50
21520;BME280;10921;53.614;9.882;2022-12-07T13:55:28;100884.38;;;7.33;58.07
21520;BME280;10921;53.614;9.882;2022-12-07T13:57:55;100879.19;;;7.31;58.14
21520;BME280;10921;53.614;9.882;2022-12-07T14:00:27;100889.94;;;7.30;58.61
21520;BME280;10921;53.614;9.882;2022-12-07T14:05:39;100884.72;;;7.17;58.82
21520;BME280;10921;53.614;9.882;2022-12-07T14:08:26;100870.00;;;7.13;59.72
21520;BME280;10921;53.614;9.882;2022-12-07T14:10:57;100872.63;;;7.02;59.52
21520;BME280;10921;53.614;9.882;2022-12-07T14:13:33;100871.19;;;6.98;59.75
21520;BME280;10921;53.614;9.882;2022-12-07T14:16:26;100876.50;;;6.98;60.45
21520;BME280;10921;53.614;9.882;2022-12-07T14:18:59;100878.13;;;6.88;59.61
21520;BME280;10921;53.614;9.882;2022-12-07T14:21:29;100884.03;;;6.80;59.40
21520;BME280;10921;53.614;9.882;2022-12-07T14:24:19;100883.06;;;6.81;60.89
21520;BME280;10921;53.614;9.882;2022-12-07T14:26:48;100886.53;;;6.70;59.76
21520;BME280;10921;53.614;9.882;2022-12-07T14:31:52;100868.75;;;6.49;59.36
21520;BME280;10921;53.614;9.882;2022-12-07T14:34:22;100883.69;;;6.50;59.76
21520;BME280;10921;53.614;9.882;2022-12-07T14:36:49;100885.28;;;6.52;61.16
21520;BME280;10921;53.614;9.882;2022-12-07T14:39:15;100884.81;;;6.34;59.76
21520;BME280;10921;53.614;9.882;2022-12-07T14:41:42;100896.13;;;6.25;60.25
21520;BME280;10921;53.614;9.882;2022-12-07T14:44:23;100890.63;;;6.16;60.76
21520;BME280;10921;53.614;9.882;2022-12-07T14:46:57;100866.56;;;5.95;60.49
21520;BME280;10921;53.614;9.882;2022-12-07T14:49:46;100876.53;;;5.91;60.59
21520;BME280;10921;53.614;9.882;2022-12-07T14:52:17;100869.66;;;5.76;61.21
21520;BME280;10921;53.614;9.882;2022-12-07T14:55:07;100878.13;;;5.69;61.51
21520;BME280;10921;53.614;9.882;2022-12-07T14:57:38;100878.06;;;5.57;62.01
21520;BME280;10921;53.614;9.882;2022-12-07T15:00:05;100885.56;;;5.51;62.25
21520;BME280;10921;53.614;9.882;2022-12-07T15:02:32;100879.03;;;5.44;62.50
21520;BME280;10921;53.614;9.882;2022-12-07T15:04:59;100883.03;;;5.37;62.79
21520;BME280;10921;53.614;9.882;2022-12-07T15:07:26;100874.06;;;5.26;63.18
21520;BME280;10921;53.614;9.882;2022-12-07T15:09:52;100880.50;;;5.22;63.41
21520;BME280;10921;53.614;9.882;2022-12-07T15:12:19;100882.88;;;5.14;63.88
21520;BME280;10921;53.614;9.882;2022-12-07T15:14:45;100892.06;;;5.09;64.04
21520;BME280;10921;53.614;9.882;2022-12-07T15:17:12;100891.63;;;5.02;63.97
21520;BME280;10921;53.614;9.882;2022-12-07T15:19:55;100886.13;;;4.92;64.22
21520;BME280;10921;53.614;9.882;2022-12-07T15:22:21;100882.97;;;4.87;64.98
21520;BME280;10921;53.614;9.882;2022-12-07T15:24:48;100884.31;;;4.80;65.74
21520;BME280;10921;53.614;9.882;2022-12-07T15:27:14;100884.28;;;4.68;66.43